< < Back
Terminal Aerodrome Forecast


Current Version              Previous Versions:   1  2  3  4  5  6  7  8  9  

Terminal Aerodrome Forecast

624
FTUS42 KCHS 300800 AAA
TAFCHS
TAF AMD
KCHS 300831Z 3009/3106 31005KT P6SM SCT025 OVC050
     FM300930 36007KT P6SM SCT009 OVC015
     FM301400 02010KT P6SM SCT025 SCT035
     FM302300 03006KT P6SM SCT030=



Latest METAR

906
SAUS80 KWBC 301200 RRC
MTRCHS
METAR KCHS 301156Z 03008KT 10SM FEW008 SCT050 BKN100 16/12 A2998 RMK AO2
SLP152 T01560117 10211 20156 53016


USA.gov is the U.S. government's official web portal to all federal, state and local government web resources and services.